Time;durP1;ratioP1;P1;durP2;ratioP2;P2;SDS_P1;SDS_P2;PMS_P1;PMS_P2;Temp;Humidity;BMP_temperature;BMP_pressure;BME280_temperature;BME280_humidity;BME280_pressure;Samples;Min_cycle;Max_cycle;Signal;HPM_P1;HPM_P2
2021/03/21 00:02:10;;;;;;;13.23;9.70;;;9.40;97.40;;;;;;5093796;28;20410;-73
2021/03/21 00:04:35;;;;;;;10.87;9.73;;;9.40;97.50;;;;;;5093067;28;20178;-74
2021/03/21 00:07:01;;;;;;;13.60;11.73;;;9.40;97.70;;;;;;5093672;28;20259;-73
2021/03/21 00:09:27;;;;;;;12.40;10.37;;;9.40;97.90;;;;;;5092962;28;20211;-74
2021/03/21 00:11:52;;;;;;;12.03;10.83;;;9.40;98.10;;;;;;5093582;28;20890;-73
2021/03/21 00:14:18;;;;;;;12.37;10.80;;;9.40;98.30;;;;;;5092940;28;20172;-73
2021/03/21 00:16:44;;;;;;;14.43;11.53;;;9.40;98.40;;;;;;5093812;28;20501;-73
2021/03/21 00:19:10;;;;;;;14.30;11.33;;;9.40;98.60;;;;;;5093530;28;20223;-73
2021/03/21 00:21:36;;;;;;;15.93;12.47;;;9.40;98.70;;;;;;5092785;28;20199;-73
2021/03/21 00:24:06;;;;;;;14.57;12.03;;;9.30;98.80;;;;;;5093465;28;20430;-73
2021/03/21 00:26:32;;;;;;;14.27;12.07;;;9.20;99.10;;;;;;5093059;28;20494;-73
2021/03/21 00:28:59;;;;;;;13.23;11.60;;;9.20;99.30;;;;;;5093218;28;20521;-74
2021/03/21 00:31:25;;;;;;;13.33;12.10;;;9.10;99.50;;;;;;5092633;28;20255;-73
2021/03/21 00:33:51;;;;;;;14.27;12.70;;;9.10;99.70;;;;;;5093219;28;20498;-73
2021/03/21 00:36:17;;;;;;;14.53;12.33;;;9.20;99.80;;;;;;5092573;28;20897;-74
2021/03/21 00:38:50;;;;;;;15.43;12.57;;;9.20;99.60;;;;;;5092845;28;20739;-73
2021/03/21 00:41:18;;;;;;;14.60;12.93;;;9.20;99.60;;;;;;5093155;28;20448;-73
2021/03/21 00:43:44;;;;;;;14.63;12.90;;;9.30;99.60;;;;;;5092646;28;20873;-74
2021/03/21 00:46:10;;;;;;;14.23;12.73;;;9.30;99.50;;;;;;5092831;28;20410;-74
2021/03/21 00:48:39;;;;;;;14.83;13.23;;;9.30;99.40;;;;;;5092526;28;20294;-73
2021/03/21 00:51:06;;;;;;;14.80;13.30;;;9.30;99.40;;;;;;5092619;28;20997;-74
2021/03/21 00:53:33;;;;;;;15.93;13.57;;;9.30;99.40;;;;;;5092298;28;20415;-74
2021/03/21 00:55:58;;;;;;;16.13;14.53;;;9.30;99.40;;;;;;5093021;28;20496;-73
2021/03/21 00:58:24;;;;;;;17.13;14.90;;;9.30;99.50;;;;;;5092277;28;20497;-73
2021/03/21 01:00:54;;;;;;;15.50;13.70;;;9.30;99.50;;;;;;5093225;28;20381;-73
2021/03/21 01:03:21;;;;;;;15.63;13.93;;;9.30;99.50;;;;;;5092251;28;20194;-73
2021/03/21 01:06:02;;;;;;;16.00;14.30;;;9.30;99.50;;;;;;5092422;28;20823;-73
2021/03/21 01:08:32;;;;;;;16.17;13.60;;;9.30;99.60;;;;;;5092250;28;20799;-73
2021/03/21 01:11:00;;;;;;;15.40;13.80;;;9.30;99.60;;;;;;5074778;28;20426;-74
2021/03/21 01:13:26;;;;;;;15.30;13.70;;;9.30;99.40;;;;;;5091888;28;20747;-74
2021/03/21 01:15:53;;;;;;;14.90;13.40;;;9.30;99.30;;;;;;5092382;28;20413;-73
2021/03/21 01:18:26;;;;;;;16.13;14.43;;;9.30;99.40;;;;;;5092286;28;20493;-73
2021/03/21 01:20:52;;;;;;;15.17;13.37;;;9.30;99.50;;;;;;5075084;28;20411;-74
2021/03/21 01:23:19;;;;;;;17.93;14.73;;;9.20;99.70;;;;;;5092618;28;20919;-74
2021/03/21 01:25:45;;;;;;;15.17;13.50;;;9.20;99.90;;;;;;5092648;28;20449;-74
2021/03/21 01:28:21;;;;;;;16.40;14.37;;;9.20;99.90;;;;;;5074465;28;20794;-73
2021/03/21 01:30:48;;;;;;;19.73;15.30;;;9.20;99.90;;;;;;5092545;28;20410;-74
2021/03/21 01:33:14;;;;;;;20.63;15.60;;;9.20;99.90;;;;;;5092205;28;20733;-74
2021/03/21 01:35:39;;;;;;;17.80;15.90;;;9.20;99.90;;;;;;5092134;28;20389;-73
2021/03/21 01:38:05;;;;;;;20.47;16.77;;;9.20;99.90;;;;;;5092481;28;20229;-73
2021/03/21 01:40:33;;;;;;;19.77;17.03;;;9.20;99.90;;;;;;5091790;28;20619;-74
2021/03/21 01:42:59;;;;;;;18.23;15.97;;;9.20;99.90;;;;;;5092477;28;20173;-73
2021/03/21 01:45:46;;;;;;;17.97;15.57;;;9.30;99.90;;;;;;5091820;28;20377;-73
2021/03/21 01:48:36;;;;;;;19.00;15.60;;;9.30;99.90;;;;;;5092310;28;20530;-73
2021/03/21 01:51:10;;;;;;;19.93;15.53;;;9.30;99.90;;;;;;5092550;28;20390;-73
2021/03/21 01:53:38;;;;;;;19.77;14.77;;;9.20;99.90;;;;;;5091685;28;20405;-73
2021/03/21 01:56:05;;;;;;;16.93;15.13;;;9.30;99.90;;;;;;5078133;28;20398;-74
2021/03/21 01:58:32;;;;;;;17.50;14.50;;;9.30;99.90;;;;;;5095856;28;20899;-73
2021/03/21 02:01:01;;;;;;;18.13;15.50;;;9.30;99.90;;;;;;5096141;28;20406;-74
2021/03/21 02:03:27;;;;;;;18.03;15.70;;;9.30;99.90;;;;;;5095501;28;20487;-74
2021/03/21 02:06:25;;;;;;;17.20;15.40;;;9.30;99.90;;;;;;5096061;28;20410;-74
2021/03/21 02:09:16;;;;;;;17.47;15.67;;;9.30;99.90;;;;;;5096078;28;20442;-74
2021/03/21 02:12:12;;;;;;;17.83;15.63;;;9.30;99.90;;;;;;5095050;28;20742;-74
2021/03/21 02:14:49;;;;;;;19.10;16.03;;;9.30;99.90;;;;;;5095008;28;20441;-74
2021/03/21 02:17:42;;;;;;;19.50;15.77;;;9.30;99.90;;;;;;5095891;28;20394;-74
2021/03/21 02:20:32;;;;;;;19.43;15.67;;;9.20;99.90;;;;;;5095852;28;20817;-74
2021/03/21 02:23:23;;;;;;;17.27;14.13;;;9.20;99.90;;;;;;5095975;28;20380;-74
2021/03/21 02:26:22;;;;;;;18.57;14.53;;;9.20;99.90;;;;;;5094739;28;20767;-74
2021/03/21 02:29:09;;;;;;;18.97;15.87;;;9.20;99.90;;;;;;5095540;28;20494;-73
2021/03/21 02:31:49;;;;;;;20.53;16.03;;;9.20;99.90;;;;;;5094911;28;20406;-74
2021/03/21 02:34:27;;;;;;;20.83;16.80;;;9.20;99.90;;;;;;5077640;28;20446;-74
2021/03/21 02:37:03;;;;;;;21.17;16.77;;;9.10;99.90;;;;;;5095555;28;20429;-74
2021/03/21 02:39:50;;;;;;;21.90;17.70;;;9.10;99.90;;;;;;5094791;28;20397;-74
2021/03/21 02:42:26;;;;;;;22.57;15.97;;;9.10;99.90;;;;;;5095644;28;20387;-74
2021/03/21 02:45:00;;;;;;;23.90;18.03;;;9.10;99.90;;;;;;5095382;28;20391;-74
2021/03/21 02:47:29;;;;;;;22.17;16.43;;;9.10;99.90;;;;;;5094226;28;20819;-74
2021/03/21 02:50:00;;;;;;;22.13;17.47;;;9.10;99.90;;;;;;5076900;28;20509;-74
2021/03/21 02:52:42;;;;;;;24.90;19.57;;;9.10;99.90;;;;;;5094631;28;20383;-73
2021/03/21 02:55:33;;;;;;;25.20;18.40;;;9.10;99.90;;;;;;5095269;28;20863;-73
2021/03/21 02:58:29;;;;;;;27.23;19.70;;;9.10;99.90;;;;;;5095177;28;20548;-73
2021/03/21 03:01:04;;;;;;;26.97;19.30;;;9.10;99.90;;;;;;5093077;28;20846;-73
2021/03/21 03:03:32;;;;;;;23.17;17.43;;;9.10;99.90;;;;;;5094284;28;20717;-74
2021/03/21 03:06:05;;;;;;;28.07;19.50;;;9.00;99.90;;;;;;5093693;28;20396;-73
2021/03/21 03:08:41;;;;;;;26.60;19.57;;;9.10;99.90;;;;;;5094295;28;20485;-73
2021/03/21 03:11:20;;;;;;;25.20;18.23;;;9.00;99.90;;;;;;5094847;28;20389;-73
2021/03/21 03:13:56;;;;;;;25.37;18.90;;;9.00;99.90;;;;;;5094466;28;20405;-73
2021/03/21 03:16:26;;;;;;;23.80;17.97;;;9.00;99.90;;;;;;5094383;28;20856;-73
2021/03/21 03:19:28;;;;;;;27.50;18.37;;;9.10;99.90;;;;;;5094601;28;20414;-73
2021/03/21 03:21:59;;;;;;;26.20;17.87;;;9.00;99.90;;;;;;5094624;28;20385;-73
2021/03/21 03:24:30;;;;;;;22.17;17.03;;;9.00;99.90;;;;;;5094609;28;20819;-73
2021/03/21 03:27:10;;;;;;;26.00;16.73;;;9.00;99.90;;;;;;5094565;28;20905;-73
2021/03/21 03:29:47;;;;;;;22.60;16.83;;;8.90;99.90;;;;;;5093830;28;20823;-73
2021/03/21 03:32:14;;;;;;;20.67;16.40;;;9.00;99.90;;;;;;5094453;28;20393;-73
2021/03/21 03:34:45;;;;;;;21.37;16.33;;;8.90;99.90;;;;;;5093599;28;20478;-73
2021/03/21 03:37:11;;;;;;;23.97;16.70;;;8.80;99.90;;;;;;5094330;28;20946;-73
2021/03/21 03:39:39;;;;;;;22.00;16.50;;;8.80;99.90;;;;;;5075543;28;20487;-73
2021/03/21 03:42:08;;;;;;;22.30;16.27;;;8.70;99.90;;;;;;5094228;28;20819;-73
2021/03/21 03:44:47;;;;;;;23.80;16.40;;;8.80;99.90;;;;;;5093184;28;20397;-72
2021/03/21 03:47:45;;;;;;;23.67;16.50;;;8.80;99.90;;;;;;5093955;28;20453;-73
2021/03/21 03:50:26;;;;;;;23.97;16.60;;;8.90;99.90;;;;;;5094084;28;20409;-73
2021/03/21 03:53:10;;;;;;;22.87;16.60;;;8.90;99.90;;;;;;5093743;28;20360;-73
2021/03/21 03:55:41;;;;;;;24.33;16.90;;;8.80;99.90;;;;;;5093267;28;20402;-73
2021/03/21 03:58:17;;;;;;;25.40;17.77;;;8.80;99.90;;;;;;5093956;28;20387;-72
2021/03/21 04:01:04;;;;;;;25.70;18.67;;;8.80;99.90;;;;;;5093358;28;20369;-73
2021/03/21 04:03:48;;;;;;;25.97;18.13;;;8.80;99.90;;;;;;5093423;28;20746;-73
2021/03/21 04:06:35;;;;;;;27.43;18.53;;;8.80;99.90;;;;;;5075513;28;20377;-73
2021/03/21 04:09:19;;;;;;;29.97;19.93;;;8.80;99.90;;;;;;5093771;28;20445;-73
2021/03/21 04:12:06;;;;;;;31.13;21.27;;;8.80;99.90;;;;;;5092733;28;20441;-73
2021/03/21 04:14:37;;;;;;;33.63;22.20;;;8.80;99.90;;;;;;5092919;28;20412;-73
2021/03/21 04:17:10;;;;;;;36.67;23.90;;;8.70;99.90;;;;;;5093187;28;20898;-72
2021/03/21 04:19:39;;;;;;;39.50;23.53;;;8.70;99.90;;;;;;5092963;28;20737;-73
2021/03/21 04:22:22;;;;;;;38.40;24.27;;;8.70;99.90;;;;;;5093557;28;20743;-73
2021/03/21 04:25:03;;;;;;;36.73;23.13;;;8.80;99.90;;;;;;5092504;28;20811;-73
2021/03/21 04:28:11;;;;;;;33.10;22.13;;;8.70;99.90;;;;;;5093090;28;20390;-73
2021/03/21 04:30:45;;;;;;;35.37;23.00;;;8.70;99.90;;;;;;5074826;28;20411;-73
2021/03/21 04:33:16;;;;;;;31.27;20.90;;;8.70;99.90;;;;;;5093399;28;20485;-73
2021/03/21 04:35:55;;;;;;;30.17;21.13;;;8.70;99.90;;;;;;5092831;28;20540;-73
2021/03/21 04:38:43;;;;;;;32.10;20.97;;;8.80;99.90;;;;;;5093442;28;20801;-73
2021/03/21 04:41:12;;;;;;;29.63;20.40;;;8.70;99.90;;;;;;5093079;28;20913;-73
2021/03/21 04:44:08;;;;;;;29.97;21.27;;;8.70;99.90;;;;;;5092495;28;20781;-73
2021/03/21 04:46:51;;;;;;;26.57;18.77;;;8.80;99.90;;;;;;5078480;28;20418;-72
2021/03/21 04:49:19;;;;;;;28.13;19.27;;;8.80;99.90;;;;;;5092971;28;20853;-73
2021/03/21 04:51:46;;;;;;;28.87;20.27;;;8.80;99.90;;;;;;5092347;28;20771;-73
2021/03/21 04:54:24;;;;;;;29.67;20.73;;;8.80;99.90;;;;;;5092897;28;20408;-73
2021/03/21 04:57:01;;;;;;;26.97;19.67;;;8.80;99.90;;;;;;5092372;28;20393;-73
2021/03/21 04:59:33;;;;;;;30.90;21.00;;;8.80;99.90;;;;;;5092989;28;20934;-73
2021/03/21 05:02:13;;;;;;;32.00;20.77;;;8.80;99.90;;;;;;5093154;28;20379;-73
2021/03/21 05:04:44;;;;;;;30.40;21.57;;;8.80;99.90;;;;;;5091895;28;20457;-73
2021/03/21 05:07:30;;;;;;;31.70;20.13;;;8.80;99.90;;;;;;5092973;28;20414;-73
2021/03/21 05:10:12;;;;;;;27.30;20.27;;;8.80;99.90;;;;;;5074182;28;20495;-73
2021/03/21 05:13:00;;;;;;;32.50;22.23;;;8.80;99.90;;;;;;5073950;28;20404;-73
2021/03/21 05:15:32;;;;;;;31.07;21.50;;;8.80;99.90;;;;;;5092589;28;20873;-73
2021/03/21 05:18:28;;;;;;;26.10;19.90;;;8.80;99.90;;;;;;5092671;28;20807;-73
2021/03/21 05:21:05;;;;;;;25.67;19.20;;;8.90;99.90;;;;;;5092087;28;20390;-73
2021/03/21 05:23:52;;;;;;;28.00;21.07;;;8.90;99.90;;;;;;5092656;28;20472;-73
2021/03/21 05:26:37;;;;;;;27.60;19.87;;;8.90;99.90;;;;;;5092656;28;20394;-73
2021/03/21 05:29:32;;;;;;;26.60;18.90;;;8.90;99.90;;;;;;5093729;28;20434;-73
2021/03/21 05:31:58;;;;;;;23.50;18.00;;;8.80;99.90;;;;;;5096518;28;20381;-73
2021/03/21 05:34:25;;;;;;;25.10;18.33;;;8.80;99.90;;;;;;5096634;28;20406;-73
2021/03/21 05:37:03;;;;;;;22.17;17.60;;;8.80;99.90;;;;;;5095990;28;20238;-73
2021/03/21 05:39:43;;;;;;;22.97;17.63;;;8.80;99.90;;;;;;5096654;28;20459;-73
2021/03/21 05:42:25;;;;;;;22.53;17.87;;;8.80;99.90;;;;;;5096702;28;20783;-73
2021/03/21 05:45:01;;;;;;;22.20;16.37;;;8.80;99.90;;;;;;5095928;28;20389;-73
2021/03/21 05:47:48;;;;;;;24.13;16.60;;;8.80;99.90;;;;;;5096261;28;20492;-72
2021/03/21 05:50:36;;;;;;;19.90;16.40;;;8.80;99.90;;;;;;5096393;28;20383;-73
2021/03/21 05:53:20;;;;;;;20.70;15.53;;;8.80;99.90;;;;;;5096038;28;20410;-74
2021/03/21 05:56:21;;;;;;;21.70;16.47;;;8.80;99.90;;;;;;5095621;28;20484;-74
2021/03/21 05:58:47;;;;;;;17.17;14.03;;;8.80;99.90;;;;;;5054784;28;20428;-74
2021/03/21 06:01:51;;;;;;;18.00;15.03;;;8.80;99.90;;;;;;5096143;28;20412;-74
2021/03/21 06:04:40;;;;;;;16.40;14.20;;;8.70;99.90;;;;;;5090988;28;20418;-74
2021/03/21 06:07:31;;;;;;;18.10;15.40;;;8.70;99.90;;;;;;5096077;28;20429;-74
2021/03/21 06:10:21;;;;;;;15.17;13.43;;;8.70;99.90;;;;;;5095356;28;20426;-74
2021/03/21 06:13:05;;;;;;;15.00;13.50;;;8.70;99.90;;;;;;5095290;28;20414;-74
2021/03/21 06:15:45;;;;;;;14.13;12.73;;;8.70;99.90;;;;;;5095821;28;20531;-74
2021/03/21 06:18:19;;;;;;;14.60;12.90;;;8.70;99.90;;;;;;5095845;28;20403;-74
2021/03/21 06:21:27;;;;;;;15.30;12.10;;;8.60;99.90;;;;;;5095176;28;20472;-74
2021/03/21 06:24:21;;;;;;;12.73;11.40;;;8.60;99.90;;;;;;5095147;28;20431;-74
2021/03/21 06:27:02;;;;;;;11.70;10.60;;;8.70;99.90;;;;;;5095068;28;20382;-74
2021/03/21 06:30:01;;;;;;;12.10;10.57;;;8.70;99.90;;;;;;5095517;28;20514;-74
2021/03/21 06:32:47;;;;;;;12.10;10.57;;;8.70;99.90;;;;;;5095569;28;20409;-74
2021/03/21 06:35:17;;;;;;;10.40;9.50;;;8.80;99.90;;;;;;5095205;28;20416;-74
2021/03/21 06:37:52;;;;;;;11.37;10.30;;;8.80;99.90;;;;;;5094871;28;20392;-74
2021/03/21 06:40:17;;;;;;;10.30;9.30;;;8.80;99.90;;;;;;5095190;28;20408;-74
2021/03/21 06:42:52;;;;;;;11.73;10.53;;;8.90;99.90;;;;;;5094715;28;20373;-74
2021/03/21 06:45:37;;;;;;;11.13;10.03;;;8.90;99.90;;;;;;5095361;28;20553;-74
2021/03/21 06:48:14;;;;;;;12.20;10.97;;;8.90;99.90;;;;;;5094496;28;20827;-74
2021/03/21 06:50:54;;;;;;;12.57;11.37;;;9.00;99.90;;;;;;5094664;28;20376;-74
2021/03/21 06:53:55;;;;;;;13.50;11.70;;;9.00;99.90;;;;;;5077130;28;20436;-74
2021/03/21 06:56:36;;;;;;;12.93;11.67;;;9.10;99.90;;;;;;5095069;28;20402;-74
2021/03/21 06:59:32;;;;;;;12.37;11.17;;;9.10;99.90;;;;;;5094446;28;20398;-74
2021/03/21 07:02:03;;;;;;;12.60;11.40;;;9.20;99.90;;;;;;5094456;28;20518;-74
2021/03/21 07:04:54;;;;;;;13.13;10.80;;;9.20;99.90;;;;;;5095011;28;20414;-74
2021/03/21 07:08:03;;;;;;;12.27;10.97;;;9.30;99.90;;;;;;5094900;28;20495;-74
2021/03/21 07:11:13;;;;;;;12.73;10.90;;;9.20;99.90;;;;;;5094799;28;20463;-74
2021/03/21 07:13:51;;;;;;;12.27;11.07;;;9.30;99.90;;;;;;5021858;28;20421;-74
2021/03/21 07:16:32;;;;;;;11.90;10.70;;;9.30;99.90;;;;;;5094725;28;20386;-74
2021/03/21 07:19:31;;;;;;;13.50;12.10;;;9.20;99.90;;;;;;5094424;28;20459;-74
2021/03/21 07:22:28;;;;;;;15.90;11.50;;;9.30;99.90;;;;;;5093985;28;20398;-74
2021/03/21 07:25:15;;;;;;;13.23;11.70;;;9.30;99.90;;;;;;5093646;28;20369;-74
2021/03/21 07:28:17;;;;;;;10.50;9.50;;;9.30;99.90;;;;;;5094510;28;20394;-74
2021/03/21 07:30:51;;;;;;;10.60;9.60;;;9.30;99.90;;;;;;5075856;28;20389;-74
2021/03/21 07:33:24;;;;;;;11.63;10.53;;;9.30;99.90;;;;;;5094686;28;20349;-74
2021/03/21 07:36:10;;;;;;;12.17;10.93;;;9.30;99.90;;;;;;5093214;28;20438;-74
2021/03/21 07:39:09;;;;;;;11.63;10.50;;;9.30;99.90;;;;;;5094016;28;20404;-74
2021/03/21 07:42:00;;;;;;;11.57;10.53;;;9.30;99.90;;;;;;5094234;28;20387;-74
2021/03/21 07:44:44;;;;;;;10.77;9.87;;;9.40;99.90;;;;;;5094198;28;20524;-73
2021/03/21 07:47:19;;;;;;;10.27;9.23;;;9.50;99.90;;;;;;5093957;28;20589;-74
2021/03/21 07:49:54;;;;;;;11.13;9.90;;;9.50;99.90;;;;;;5093450;28;20906;-73
2021/03/21 07:52:26;;;;;;;10.27;9.37;;;9.40;99.90;;;;;;5093773;28;20839;-73
2021/03/21 07:55:00;;;;;;;10.20;9.30;;;9.50;99.90;;;;;;5093343;28;20411;-73
2021/03/21 07:57:57;;;;;;;10.80;9.80;;;9.40;99.90;;;;;;5093979;28;20384;-73
2021/03/21 08:00:23;;;;;;;10.47;9.33;;;9.50;99.90;;;;;;5093872;28;20394;-72
2021/03/21 08:02:51;;;;;;;10.40;9.50;;;9.40;99.90;;;;;;5093172;28;20930;-73
2021/03/21 08:05:20;;;;;;;9.30;8.50;;;9.50;99.90;;;;;;5094135;28;20413;-73
2021/03/21 08:07:50;;;;;;;8.80;7.87;;;9.50;99.90;;;;;;5092704;28;20432;-73
2021/03/21 08:10:25;;;;;;;8.40;7.60;;;9.50;99.90;;;;;;5093479;28;20861;-73
2021/03/21 08:13:01;;;;;;;9.47;8.57;;;9.50;99.90;;;;;;5093093;28;20386;-73
2021/03/21 08:15:32;;;;;;;10.03;9.13;;;9.50;99.90;;;;;;5093707;28;20842;-73
2021/03/21 08:18:03;;;;;;;8.67;7.90;;;9.50;99.90;;;;;;5092950;28;20384;-73
2021/03/21 08:20:40;;;;;;;8.60;7.80;;;9.50;99.90;;;;;;5093606;28;20406;-72
2021/03/21 08:23:25;;;;;;;6.80;6.10;;;9.40;99.90;;;;;;5092880;28;20425;-72
2021/03/21 08:25:52;;;;;;;6.47;5.97;;;9.30;99.90;;;;;;5092842;28;20873;-73
2021/03/21 08:28:20;;;;;;;6.23;5.63;;;9.20;99.90;;;;;;5093236;28;20481;-73
2021/03/21 08:30:50;;;;;;;8.13;6.70;;;9.20;99.90;;;;;;5092343;28;20486;-73
2021/03/21 08:33:33;;;;;;;5.60;5.13;;;9.20;99.90;;;;;;5075358;28;20482;-73
2021/03/21 08:36:24;;;;;;;5.50;4.97;;;9.20;99.90;;;;;;5092614;28;20507;-71
2021/03/21 08:38:55;;;;;;;4.13;3.83;;;9.30;99.90;;;;;;5092614;28;20413;-72
2021/03/21 08:41:21;;;;;;;4.77;3.77;;;9.40;99.90;;;;;;5093061;28;20779;-73
2021/03/21 08:44:00;;;;;;;3.90;3.60;;;9.40;99.90;;;;;;5092206;28;20396;-73
2021/03/21 08:46:27;;;;;;;5.23;4.10;;;9.50;99.90;;;;;;5093159;28;20792;-73
2021/03/21 08:49:02;;;;;;;4.60;4.20;;;9.50;99.90;;;;;;5092261;28;20464;-74
2021/03/21 08:51:37;;;;;;;4.10;3.80;;;9.60;99.90;;;;;;5093128;28;20372;-74
2021/03/21 08:54:20;;;;;;;5.10;3.90;;;9.50;99.90;;;;;;5092096;28;20382;-73
2021/03/21 08:57:07;;;;;;;4.20;3.80;;;9.60;99.90;;;;;;5092993;28;20369;-74
2021/03/21 08:59:37;;;;;;;4.47;4.13;;;9.60;99.90;;;;;;5092844;28;20421;-73
2021/03/21 09:02:15;;;;;;;3.73;3.40;;;9.60;99.90;;;;;;5092259;28;20402;-74
2021/03/21 09:04:59;;;;;;;6.40;4.33;;;9.50;99.90;;;;;;5092796;28;20396;-73
2021/03/21 09:07:29;;;;;;;4.13;3.67;;;9.50;99.90;;;;;;5092780;28;20758;-73
2021/03/21 09:10:29;;;;;;;3.70;3.40;;;9.60;99.90;;;;;;5092026;28;20450;-73
2021/03/21 09:13:01;;;;;;;6.10;4.87;;;9.60;99.90;;;;;;5092158;28;20782;-73
2021/03/21 09:15:40;;;;;;;3.70;3.00;;;9.60;99.90;;;;;;5074773;28;20434;-73
2021/03/21 09:18:12;;;;;;;4.33;3.20;;;9.50;99.90;;;;;;5092069;28;20393;-73
2021/03/21 09:20:43;;;;;;;7.13;3.00;;;9.50;99.90;;;;;;5092727;28;20408;-74
2021/03/21 09:23:28;;;;;;;4.60;3.40;;;9.60;99.90;;;;;;5092065;28;20421;-74
2021/03/21 09:25:56;;;;;;;3.90;2.67;;;9.60;99.90;;;;;;5092113;28;20399;-74
2021/03/21 09:28:25;;;;;;;5.20;3.37;;;9.60;99.90;;;;;;5074503;28;20462;-74
2021/03/21 09:30:52;;;;;;;5.70;3.07;;;9.70;99.90;;;;;;5073505;28;20384;-74
2021/03/21 09:33:28;;;;;;;5.73;2.97;;;9.70;99.80;;;;;;5092102;28;20959;-74
2021/03/21 09:35:59;;;;;;;6.80;3.10;;;9.70;99.20;;;;;;5092049;28;20422;-74
2021/03/21 09:38:29;;;;;;;5.83;3.10;;;9.80;98.90;;;;;;5092458;28;20402;-75
2021/03/21 09:41:04;;;;;;;4.40;3.60;;;9.80;98.50;;;;;;5091899;28;20468;-75
2021/03/21 09:43:36;;;;;;;2.53;2.30;;;9.90;98.60;;;;;;5092570;28;20382;-73
2021/03/21 09:46:05;;;;;;;7.27;3.40;;;9.80;98.40;;;;;;5073782;28;20441;-73
2021/03/21 09:48:58;;;;;;;5.23;2.67;;;9.90;98.20;;;;;;5091889;28;20458;-74
2021/03/21 09:51:35;;;;;;;8.53;3.30;;;10.00;97.70;;;;;;5074693;28;20425;-73
2021/03/21 09:54:03;;;;;;;4.20;2.73;;;10.10;97.10;;;;;;5091826;28;20398;-73
2021/03/21 09:57:03;;;;;;;8.40;2.87;;;10.10;96.60;;;;;;5092447;28;20417;-73
2021/03/21 10:00:03;;;;;;;6.23;2.50;;;10.20;96.70;;;;;;5091970;28;20962;-73
2021/03/21 10:02:43;;;;;;;8.40;3.00;;;10.00;96.00;;;;;;5092252;28;20398;-73
2021/03/21 10:05:37;;;;;;;4.83;3.10;;;9.90;96.80;;;;;;5091365;28;20421;-73
2021/03/21 10:08:06;;;;;;;5.17;2.60;;;9.80;97.10;;;;;;5091675;28;20434;-73
2021/03/21 10:10:39;;;;;;;5.63;2.90;;;9.90;97.70;;;;;;5092273;28;20494;-74
2021/03/21 10:13:05;;;;;;;7.40;3.73;;;9.90;97.40;;;;;;5091680;28;20425;-75
2021/03/21 10:15:58;;;;;;;9.80;3.07;;;9.90;96.60;;;;;;5093788;28;20406;-74
2021/03/21 10:18:54;;;;;;;6.10;3.07;;;10.00;96.10;;;;;;5095885;28;20412;-75
2021/03/21 10:21:22;;;;;;;9.10;3.57;;;10.00;95.60;;;;;;5087556;28;20459;-74
2021/03/21 10:23:51;;;;;;;6.37;2.70;;;10.00;94.40;;;;;;5095682;28;20403;-74
2021/03/21 10:26:23;;;;;;;7.00;3.00;;;10.00;94.20;;;;;;5095761;28;20742;-74
2021/03/21 10:28:51;;;;;;;11.60;2.80;;;10.00;94.40;;;;;;5077689;28;20461;-74
2021/03/21 10:31:27;;;;;;;10.43;4.17;;;9.90;96.00;;;;;;5095641;28;20415;-74
2021/03/21 10:34:15;;;;;;;7.90;3.30;;;9.90;95.80;;;;;;5094507;28;20410;-74
2021/03/21 10:36:43;;;;;;;9.47;3.50;;;9.80;95.60;;;;;;5095284;28;20419;-75
2021/03/21 10:39:40;;;;;;;6.93;2.80;;;9.90;95.00;;;;;;5094856;28;20421;-75
2021/03/21 10:42:13;;;;;;;8.13;3.60;;;9.90;95.60;;;;;;5087261;28;20472;-75
2021/03/21 10:44:39;;;;;;;8.60;2.60;;;9.90;96.40;;;;;;5095402;28;20391;-74
2021/03/21 10:47:10;;;;;;;10.07;3.80;;;9.90;95.50;;;;;;5076432;28;20440;-74
2021/03/21 10:50:03;;;;;;;10.43;3.70;;;10.00;94.40;;;;;;5077206;28;20208;-74
2021/03/21 10:52:40;;;;;;;5.97;2.90;;;10.00;94.50;;;;;;5095161;28;20442;-74
2021/03/21 10:55:21;;;;;;;8.10;3.93;;;9.90;94.20;;;;;;5094564;28;20482;-75
2021/03/21 10:57:49;;;;;;;12.20;3.27;;;10.00;94.10;;;;;;5095286;28;20495;-75
2021/03/21 11:00:21;;;;;;;12.50;3.63;;;10.00;93.60;;;;;;5076310;28;20414;-75
2021/03/21 11:03:05;;;;;;;8.63;3.60;;;10.00;93.80;;;;;;5094934;28;20735;-74
2021/03/21 11:05:42;;;;;;;6.97;3.50;;;10.10;93.90;;;;;;5095035;28;20740;-75
2021/03/21 11:08:25;;;;;;;14.93;3.60;;;10.00;93.60;;;;;;5094245;28;20445;-74
2021/03/21 11:10:54;;;;;;;12.00;4.23;;;10.00;93.20;;;;;;5094887;28;20390;-74
2021/03/21 11:13:33;;;;;;;9.30;4.00;;;10.00;93.50;;;;;;5094503;28;20418;-74
2021/03/21 11:16:08;;;;;;;11.80;3.57;;;9.90;93.70;;;;;;5094280;28;20469;-75
2021/03/21 11:18:34;;;;;;;12.33;4.20;;;10.00;93.40;;;;;;5094394;28;20852;-74
2021/03/21 11:21:32;;;;;;;14.83;4.50;;;9.90;94.00;;;;;;5094092;28;20402;-73
2021/03/21 11:24:00;;;;;;;8.37;4.03;;;10.00;93.40;;;;;;5074153;28;20415;-74
2021/03/21 11:26:26;;;;;;;15.67;4.77;;;10.10;92.10;;;;;;5093486;28;20489;-74
2021/03/21 11:28:53;;;;;;;14.47;4.40;;;10.20;92.00;;;;;;5094177;28;21038;-74
2021/03/21 11:31:39;;;;;;;10.13;4.47;;;10.20;91.40;;;;;;5093820;28;20177;-76
2021/03/21 11:34:23;;;;;;;15.83;5.90;;;10.20;91.20;;;;;;5093699;28;20505;-74
2021/03/21 11:37:01;;;;;;;11.10;4.30;;;10.20;91.00;;;;;;5076475;28;20473;-74
2021/03/21 11:39:37;;;;;;;11.17;5.00;;;10.30;90.70;;;;;;5094368;28;20770;-74
2021/03/21 11:42:25;;;;;;;13.43;4.50;;;10.30;91.10;;;;;;5093663;28;20452;-74
2021/03/21 11:45:20;;;;;;;19.30;4.37;;;10.50;91.10;;;;;;5094268;28;20390;-74
2021/03/21 11:47:55;;;;;;;10.27;3.50;;;10.50;91.60;;;;;;5072457;28;21018;-75
2021/03/21 11:50:31;;;;;;;16.40;4.53;;;10.70;90.80;;;;;;5073561;28;20471;-75
2021/03/21 11:52:59;;;;;;;12.90;4.07;;;10.80;91.50;;;;;;5073516;28;20420;-74
2021/03/21 11:55:29;;;;;;;14.10;3.97;;;11.00;90.50;;;;;;5073852;28;20914;-74
2021/03/21 11:58:07;;;;;;;13.33;5.73;;;10.80;88.90;;;;;;5073700;28;20387;-74
2021/03/21 12:00:42;;;;;;;20.40;4.47;;;10.90;89.80;;;;;;5073613;28;20403;-74
2021/03/21 12:03:20;;;;;;;13.77;4.20;;;11.00;90.60;;;;;;5072936;28;20409;-74
2021/03/21 12:06:04;;;;;;;14.57;4.87;;;11.00;89.90;;;;;;5072248;28;20911;-74
2021/03/21 12:08:39;;;;;;;10.50;3.40;;;11.00;89.90;;;;;;5073441;28;20546;-74
2021/03/21 12:11:39;;;;;;;10.97;4.70;;;11.00;90.00;;;;;;5072499;28;20411;-74
2021/03/21 12:14:43;;;;;;;16.87;4.53;;;11.00;89.60;;;;;;5062087;28;20416;-74
2021/03/21 12:17:24;;;;;;;11.63;4.77;;;11.20;88.00;;;;;;5072710;28;20809;-75
2021/03/21 12:19:54;;;;;;;12.77;4.10;;;11.20;88.60;;;;;;5073171;28;20426;-74
2021/03/21 12:22:34;;;;;;;14.47;4.00;;;11.20;88.00;;;;;;5072641;28;20395;-74
2021/03/21 12:25:22;;;;;;;12.67;4.33;;;11.20;87.00;;;;;;5072583;28;20451;-75
2021/03/21 12:27:50;;;;;;;10.70;4.10;;;11.10;85.80;;;;;;5072062;28;20515;-75
2021/03/21 12:30:30;;;;;;;17.97;6.33;;;11.10;87.40;;;;;;5072499;28;20500;-74
2021/03/21 12:33:35;;;;;;;12.70;5.03;;;11.20;87.30;;;;;;5073157;28;20410;-74
2021/03/21 12:36:03;;;;;;;13.87;5.33;;;11.30;88.60;;;;;;4990746;28;20461;-74
2021/03/21 12:38:34;;;;;;;11.93;5.60;;;11.20;88.30;;;;;;5059547;28;20431;-73
2021/03/21 12:41:28;;;;;;;18.50;5.47;;;11.20;87.30;;;;;;5072286;28;20406;-73
2021/03/21 12:44:23;;;;;;;11.77;4.90;;;11.10;85.70;;;;;;5072828;28;20405;-74
2021/03/21 12:46:52;;;;;;;10.43;4.00;;;11.20;83.30;;;;;;5055150;28;20418;-73
2021/03/21 12:49:36;;;;;;;13.53;4.53;;;11.30;83.60;;;;;;5092389;28;20453;-73
2021/03/21 12:52:06;;;;;;;19.83;5.47;;;11.30;82.30;;;;;;5074269;28;20411;-74
2021/03/21 12:54:33;;;;;;;10.93;4.70;;;11.20;82.70;;;;;;5093212;28;20404;-74
2021/03/21 12:56:59;;;;;;;15.97;5.90;;;11.20;84.80;;;;;;5092921;28;20424;-74
2021/03/21 12:59:25;;;;;;;10.00;4.70;;;11.10;83.90;;;;;;5092857;28;20403;-74
2021/03/21 13:01:51;;;;;;;13.53;4.33;;;11.20;83.80;;;;;;5074630;28;20412;-74
2021/03/21 13:04:18;;;;;;;13.53;5.50;;;11.30;83.20;;;;;;5073926;28;20405;-74
2021/03/21 13:06:44;;;;;;;9.00;4.57;;;11.40;83.00;;;;;;5074731;28;20422;-74
2021/03/21 13:09:09;;;;;;;13.03;3.90;;;11.50;84.20;;;;;;5092024;28;20442;-74
2021/03/21 13:11:37;;;;;;;12.03;5.17;;;11.50;81.70;;;;;;5092454;28;20410;-74
2021/03/21 13:14:03;;;;;;;10.27;4.57;;;11.50;82.90;;;;;;5092077;28;20768;-74
2021/03/21 13:16:29;;;;;;;17.03;4.40;;;11.40;83.20;;;;;;5092866;28;20753;-74
2021/03/21 13:18:55;;;;;;;11.07;4.27;;;11.40;83.30;;;;;;5092741;28;20401;-73
2021/03/21 13:21:22;;;;;;;11.87;4.40;;;11.50;81.90;;;;;;5091732;28;20164;-74
2021/03/21 13:23:48;;;;;;;11.27;6.20;;;11.60;81.50;;;;;;5092612;28;20185;-73
2021/03/21 13:26:14;;;;;;;13.50;4.63;;;11.50;83.20;;;;;;5092077;28;20406;-74
2021/03/21 13:28:39;;;;;;;9.80;4.07;;;11.50;84.10;;;;;;5092634;28;20947;-73
2021/03/21 13:31:06;;;;;;;13.30;4.20;;;11.50;80.80;;;;;;5091879;28;20508;-74
2021/03/21 13:33:32;;;;;;;10.60;4.93;;;11.50;83.00;;;;;;5092510;28;20853;-74